SBBH Airport Information

Runway Information
Runway 13 Length 8333 ft width 148 ft
Elevation 0 ft Threshold 0 ft Heading 0
Runway 31 Length 8333 ft Width 148 ft
Elevation 0 ft Threshold 0 ft Heading 0
Airport Frequencies
Type APP Name BELO HORIZ Frequency 120.2 MHZ
Type ATIS Name BELO HORIZ Frequency 127.45 MHZ
Type CLD Name BELO HORIZ Frequency 121.1 MHZ
Type GND Name GND Frequency 121.6 MHZ
Type OPS Name SAO PAULO Frequency 122.5 MHZ
Type TWR Name BELO HORIZ Frequency 118 MHZ
Airport Navaids
Type VOR-DME Name Belo Horizonte Frequency 117700 KHZ
Type NDB Name Belo Horizonte Frequency 520 KHZ
Airport Weather Information & NOTAM
ADDS - METARS form results

(1957 UTC 21 March 2019)
Data provider http://aviationweather.gov/metar/data/
 
METAR text: SBBH 211900Z 08006KT 9999 SCT045 27/19 Q1011
Conditions at: SBBH (BELO HORIZ/PAMPU, BR) observed 1900 UTC 21 March 2019
Temperature: 27.0°C (81°F)
Dewpoint: 19.0°C (66°F) [RH = 62%]
Pressure (altimeter): 29.85 inches Hg (1011.0 mb)
Winds: from the E (80 degrees) at 7 MPH (6 knots; 3.1 m/s)
Visibility: 6 or more miles (10+ km)
Ceiling: at least 12,000 feet AGL
Clouds: scattered clouds at 4500 feet AGL
Weather: no significant weather observed at this time